createdAt,value
2023-07-24T00:00:21.353Z,9.97
2023-07-24T00:03:12.397Z,9.80
2023-07-24T00:06:02.106Z,9.93
2023-07-24T00:08:51.453Z,10.23
2023-07-24T00:11:40.829Z,9.70
2023-07-24T00:14:30.188Z,9.87
2023-07-24T00:17:19.587Z,10.10
2023-07-24T00:20:11.454Z,10.17
2023-07-24T00:23:00.844Z,10.50
2023-07-24T00:25:50.220Z,10.07
2023-07-24T00:28:39.571Z,10.23
2023-07-24T00:31:28.991Z,10.20
2023-07-24T00:34:18.338Z,9.77
2023-07-24T00:37:09.675Z,10.33
2023-07-24T00:39:59.037Z,10.03
2023-07-24T00:42:50.240Z,10.33
2023-07-24T00:45:39.676Z,10.60
2023-07-24T00:48:29.636Z,10.70
2023-07-24T00:51:19.417Z,10.77
2023-07-24T00:54:10.291Z,10.30
2023-07-24T00:56:59.764Z,10.10
2023-07-24T00:59:49.209Z,10.03
2023-07-24T01:02:40.042Z,10.07
2023-07-24T01:05:29.866Z,10.23
2023-07-24T01:08:19.560Z,10.00
2023-07-24T01:11:18.221Z,10.20
2023-07-24T01:14:22.904Z,10.20
2023-07-24T01:17:17.369Z,10.17
2023-07-24T01:20:10.675Z,10.30
2023-07-24T01:23:35.135Z,10.50
2023-07-24T01:26:26.040Z,10.23
2023-07-24T01:29:15.626Z,10.50
2023-07-24T01:32:05.994Z,10.80
2023-07-24T01:34:56.137Z,10.20
2023-07-24T01:37:47.364Z,10.33
2023-07-24T01:40:36.937Z,10.33
2023-07-24T01:43:28.924Z,10.47
2023-07-24T01:46:18.368Z,10.00
2023-07-24T01:49:07.742Z,9.90
2023-07-24T01:51:58.466Z,10.60
2023-07-24T01:54:47.875Z,10.17
2023-07-24T01:57:37.234Z,10.60
2023-07-24T02:00:27.988Z,10.13
2023-07-24T02:03:23.256Z,10.70
2023-07-24T02:06:12.786Z,10.33
2023-07-24T02:09:02.114Z,10.27
2023-07-24T02:11:51.524Z,10.27
2023-07-24T02:14:40.817Z,10.30
2023-07-24T02:17:31.670Z,10.33
2023-07-24T02:20:21.048Z,10.47
2023-07-24T02:23:13.391Z,10.00
2023-07-24T02:26:02.830Z,10.57
2023-07-24T02:28:52.245Z,10.60
2023-07-24T02:31:41.811Z,10.20
2023-07-24T02:34:32.668Z,10.57
2023-07-24T02:37:22.199Z,10.40
2023-07-24T02:40:13.206Z,10.27
2023-07-24T02:43:02.676Z,10.30
2023-07-24T02:45:52.111Z,10.53
2023-07-24T02:48:41.467Z,10.40
2023-07-24T02:51:32.248Z,10.43
2023-07-24T02:54:21.580Z,10.50
2023-07-24T02:57:10.938Z,9.77
2023-07-24T03:00:00.302Z,11.00
2023-07-24T03:02:49.787Z,10.30
2023-07-24T03:05:39.241Z,10.30
2023-07-24T03:08:30.079Z,10.40
2023-07-24T03:11:20.109Z,10.47
2023-07-24T03:14:09.400Z,10.40
2023-07-24T03:16:59.600Z,10.40
2023-07-24T03:19:51.498Z,10.70
2023-07-24T03:22:40.841Z,10.33
2023-07-24T03:25:32.786Z,10.70
2023-07-24T03:28:22.251Z,10.10
2023-07-24T03:31:11.718Z,10.47
2023-07-24T03:34:01.811Z,10.50
2023-07-24T03:36:51.194Z,10.63
2023-07-24T03:39:40.458Z,10.50
2023-07-24T03:42:33.371Z,10.67
2023-07-24T03:45:22.854Z,10.53
2023-07-24T03:48:12.226Z,10.43
2023-07-24T03:51:02.130Z,10.20
2023-07-24T03:53:53.532Z,10.40
2023-07-24T03:56:44.300Z,10.33
2023-07-24T03:59:35.074Z,10.00
2023-07-24T04:02:25.361Z,10.50
2023-07-24T04:05:14.844Z,10.73
2023-07-24T04:08:04.742Z,10.67
2023-07-24T04:10:54.385Z,10.27
2023-07-24T04:13:43.724Z,10.30
2023-07-24T04:16:34.762Z,10.30
2023-07-24T04:19:24.352Z,10.20
2023-07-24T04:22:13.692Z,10.40
2023-07-24T04:25:03.052Z,10.27
2023-07-24T04:27:52.466Z,10.00
2023-07-24T04:30:41.825Z,10.73
2023-07-24T04:33:33.051Z,10.07
2023-07-24T04:36:22.558Z,10.20
2023-07-24T04:39:11.903Z,10.17
2023-07-24T04:42:01.257Z,10.77
2023-07-24T04:44:51.181Z,10.63
2023-07-24T04:47:40.590Z,10.97
2023-07-24T04:50:31.648Z,10.73
2023-07-24T04:53:21.655Z,10.43
2023-07-24T04:56:11.640Z,10.40
2023-07-24T04:59:01.082Z,10.23
2023-07-24T05:01:50.425Z,10.47
2023-07-24T05:04:39.810Z,10.57
2023-07-24T05:07:30.582Z,10.20
2023-07-24T05:10:19.951Z,10.00
2023-07-24T05:13:11.253Z,10.37
2023-07-24T05:16:02.186Z,10.40
2023-07-24T05:18:51.617Z,10.90
2023-07-24T05:21:40.974Z,10.70
2023-07-24T05:24:31.732Z,10.60
2023-07-24T05:27:21.141Z,10.53
2023-07-24T05:30:10.888Z,10.60
2023-07-24T05:33:00.357Z,10.47
2023-07-24T05:35:51.500Z,10.30
2023-07-24T05:38:40.868Z,10.73
2023-07-24T05:41:31.569Z,10.70
2023-07-24T05:44:21.024Z,10.60
2023-07-24T05:47:10.348Z,10.10
2023-07-24T05:49:59.709Z,10.40
2023-07-24T05:52:49.129Z,10.27
2023-07-24T05:55:38.452Z,10.50
2023-07-24T05:58:29.510Z,9.93
2023-07-24T06:01:18.983Z,10.20
2023-07-24T06:04:08.636Z,9.93
2023-07-24T06:07:03.237Z,10.07
2023-07-24T06:09:52.675Z,10.00
2023-07-24T06:12:42.398Z,10.20
2023-07-24T06:15:33.131Z,9.73
2023-07-24T06:18:22.556Z,10.20
2023-07-24T06:21:11.931Z,10.20
2023-07-24T06:24:01.262Z,10.30
2023-07-24T06:26:50.677Z,10.40
2023-07-24T06:29:40.314Z,10.50
2023-07-24T06:32:31.235Z,10.10
2023-07-24T06:35:20.795Z,10.17
2023-07-24T06:38:10.494Z,10.57
2023-07-24T06:41:00.240Z,10.60
2023-07-24T06:43:49.598Z,9.90
2023-07-24T06:46:38.962Z,10.47
2023-07-24T06:49:29.628Z,10.30
2023-07-24T06:52:18.998Z,10.70
2023-07-24T06:55:09.616Z,10.20
2023-07-24T06:57:58.950Z,10.23
2023-07-24T07:00:48.259Z,10.73
2023-07-24T07:03:37.659Z,10.50
2023-07-24T07:06:28.784Z,10.03
2023-07-24T07:09:18.383Z,10.17
2023-07-24T07:12:09.115Z,10.60
2023-07-24T07:14:58.510Z,10.50
2023-07-24T07:17:47.909Z,10.40
2023-07-24T07:20:37.294Z,10.33
2023-07-24T07:23:28.073Z,10.70
2023-07-24T07:26:17.432Z,9.93
2023-07-24T07:29:06.872Z,10.50
2023-07-24T07:31:56.244Z,10.20
2023-07-24T07:34:45.625Z,10.07
2023-07-24T07:37:34.889Z,10.20
2023-07-24T07:40:25.715Z,9.80
2023-07-24T07:43:15.027Z,10.20
2023-07-24T07:46:04.473Z,10.20
2023-07-24T07:48:53.840Z,9.97
2023-07-24T07:51:43.317Z,9.80
2023-07-24T07:54:32.897Z,10.17
2023-07-24T07:57:23.682Z,10.00
2023-07-24T08:00:14.305Z,9.52
2023-07-24T08:03:03.728Z,9.77
2023-07-24T08:05:53.516Z,9.48
2023-07-24T08:08:42.887Z,9.43
2023-07-24T08:11:32.218Z,9.50
2023-07-24T08:14:22.962Z,9.73
2023-07-24T08:17:12.483Z,9.85
2023-07-24T08:20:02.100Z,9.73
2023-07-24T08:22:51.423Z,10.10
2023-07-24T08:25:40.702Z,10.13
2023-07-24T08:28:30.093Z,9.85
2023-07-24T08:31:20.863Z,10.40
2023-07-24T08:34:10.292Z,10.90
2023-07-24T08:36:59.696Z,10.75
2023-07-24T08:39:49.009Z,10.50
2023-07-24T08:42:42.001Z,10.70
2023-07-24T08:45:33.189Z,10.90
2023-07-24T08:48:25.228Z,10.80
2023-07-24T08:51:19.907Z,10.80
2023-07-24T08:54:10.189Z,10.80
2023-07-24T08:56:59.541Z,13.57
2023-07-24T08:59:48.874Z,12.17
2023-07-24T09:02:38.635Z,12.00
2023-07-24T09:05:29.404Z,11.20
2023-07-24T09:08:18.956Z,11.57
2023-07-24T09:11:10.186Z,10.97
2023-07-24T09:13:59.853Z,11.13
2023-07-24T09:16:49.444Z,10.63
2023-07-24T09:19:40.163Z,10.90
2023-07-24T09:22:31.066Z,10.60
2023-07-24T09:25:20.572Z,11.00
2023-07-24T09:28:13.811Z,10.53
2023-07-24T09:31:03.862Z,10.67
2023-07-24T09:33:53.313Z,11.00
2023-07-24T09:36:42.806Z,11.30
2023-07-24T09:39:35.374Z,10.97
2023-07-24T09:42:33.056Z,10.70
2023-07-24T09:45:23.302Z,10.70
2023-07-24T09:48:40.550Z,10.67
2023-07-24T09:51:25.600Z,10.80
2023-07-24T09:54:22.637Z,11.00
2023-07-24T09:57:21.928Z,10.80
2023-07-24T10:00:15.668Z,10.43
2023-07-24T10:03:06.004Z,10.63
2023-07-24T10:05:56.046Z,10.87
2023-07-24T10:08:47.041Z,10.80
2023-07-24T10:11:37.210Z,10.87
2023-07-24T10:14:28.609Z,10.83
2023-07-24T10:17:37.234Z,11.50
2023-07-24T10:20:35.220Z,11.40
2023-07-24T10:23:25.336Z,11.60
2023-07-24T10:26:15.677Z,11.13
2023-07-24T10:29:07.534Z,10.87
2023-07-24T10:31:59.753Z,11.27
2023-07-24T10:34:59.952Z,11.20
2023-07-24T10:37:49.453Z,11.27
2023-07-24T10:40:38.815Z,11.07
2023-07-24T10:43:28.317Z,10.80
2023-07-24T10:46:20.344Z,10.80
2023-07-24T10:49:11.923Z,11.07
2023-07-24T10:52:01.944Z,10.93
2023-07-24T10:54:53.899Z,11.50
2023-07-24T10:57:43.395Z,11.03
2023-07-24T11:00:32.847Z,11.30
2023-07-24T11:03:22.585Z,11.37
2023-07-24T11:06:18.158Z,11.57
2023-07-24T11:09:07.571Z,11.50
2023-07-24T11:11:56.930Z,11.57
2023-07-24T11:14:51.071Z,11.27
2023-07-24T11:17:42.452Z,12.03
2023-07-24T11:20:31.919Z,11.40
2023-07-24T11:23:22.907Z,11.70
2023-07-24T11:26:12.459Z,12.30
2023-07-24T11:29:03.100Z,12.80
2023-07-24T11:31:57.735Z,12.50
2023-07-24T11:34:48.164Z,12.00
2023-07-24T11:37:37.903Z,12.23
2023-07-24T11:40:37.432Z,12.73
2023-07-24T11:43:27.972Z,12.10
2023-07-24T11:46:26.834Z,12.20
2023-07-24T11:49:17.428Z,12.57
2023-07-24T11:52:09.629Z,12.17
2023-07-24T11:55:02.316Z,12.10
2023-07-24T11:58:00.919Z,12.53
2023-07-24T12:00:52.871Z,12.97
2023-07-24T12:03:43.990Z,12.20
2023-07-24T12:06:33.774Z,12.63
2023-07-24T12:09:23.180Z,13.57
2023-07-24T12:12:17.149Z,13.03
2023-07-24T12:15:09.764Z,11.80
2023-07-24T12:17:59.374Z,11.87
2023-07-24T12:20:49.459Z,11.77
2023-07-24T12:23:38.845Z,12.00
2023-07-24T12:26:28.876Z,12.50
2023-07-24T12:29:18.373Z,11.80
2023-07-24T12:32:09.599Z,12.33
2023-07-24T12:34:59.019Z,12.67
2023-07-24T12:37:48.507Z,11.87
2023-07-24T12:40:37.858Z,12.57
2023-07-24T12:43:27.275Z,12.23
2023-07-24T12:46:16.665Z,12.27
2023-07-24T12:49:07.522Z,11.70
2023-07-24T12:51:56.985Z,12.10
2023-07-24T12:55:00.096Z,12.23
2023-07-24T12:57:50.852Z,11.70
2023-07-24T13:00:40.259Z,12.00
2023-07-24T13:03:29.737Z,12.10
2023-07-24T13:06:20.543Z,13.00
2023-07-24T13:09:10.392Z,11.83
2023-07-24T13:11:59.785Z,12.03
2023-07-24T13:14:49.152Z,11.70
2023-07-24T13:17:39.793Z,11.63
2023-07-24T13:20:29.144Z,11.50
2023-07-24T13:23:19.889Z,11.90
2023-07-24T13:26:11.669Z,10.90
2023-07-24T13:29:01.073Z,10.70
2023-07-24T13:31:53.086Z,10.60
2023-07-24T13:34:42.623Z,10.70
2023-07-24T13:37:32.052Z,10.73
2023-07-24T13:40:22.743Z,10.27
2023-07-24T13:43:12.181Z,10.03
2023-07-24T13:46:03.673Z,10.30
2023-07-24T13:48:53.064Z,9.97
2023-07-24T13:51:42.432Z,10.20
2023-07-24T13:54:31.805Z,11.03
2023-07-24T13:57:22.838Z,10.70
2023-07-24T14:00:13.581Z,10.90
2023-07-24T14:03:04.988Z,11.40
2023-07-24T14:05:54.416Z,10.80
2023-07-24T14:08:43.752Z,11.20
2023-07-24T14:11:33.298Z,11.00
2023-07-24T14:14:25.860Z,11.20
2023-07-24T14:17:16.149Z,10.83
2023-07-24T14:20:06.169Z,11.53
2023-07-24T14:22:55.631Z,11.07
2023-07-24T14:25:44.992Z,11.47
2023-07-24T14:28:34.474Z,11.10
2023-07-24T14:31:25.696Z,10.93
2023-07-24T14:34:15.151Z,10.93
2023-07-24T14:37:04.701Z,11.33
2023-07-24T14:39:54.156Z,11.30
2023-07-24T14:42:43.411Z,10.90
2023-07-24T14:45:32.747Z,11.17
2023-07-24T14:48:24.050Z,10.93
2023-07-24T14:51:13.450Z,11.43
2023-07-24T14:54:02.968Z,10.40
2023-07-24T14:56:57.433Z,11.07
2023-07-24T14:59:54.782Z,11.67
2023-07-24T15:02:51.016Z,11.40
2023-07-24T15:05:41.893Z,11.30
2023-07-24T15:08:31.298Z,11.40
2023-07-24T15:11:20.593Z,12.00
2023-07-24T15:14:28.959Z,11.97
2023-07-24T15:17:21.178Z,12.30
2023-07-24T15:20:13.421Z,12.03
2023-07-24T15:23:04.230Z,12.10
2023-07-24T15:25:53.516Z,12.10
2023-07-24T15:28:42.893Z,11.80
2023-07-24T15:31:36.544Z,12.40
2023-07-24T15:34:25.991Z,13.07
2023-07-24T15:37:15.510Z,12.23
2023-07-24T15:40:08.521Z,11.50
2023-07-24T15:42:58.145Z,12.00
2023-07-24T15:45:47.568Z,11.50
2023-07-24T15:48:37.598Z,12.07
2023-07-24T15:51:28.988Z,12.80
2023-07-24T15:54:18.828Z,12.53
2023-07-24T15:57:09.644Z,12.70
2023-07-24T15:59:59.425Z,12.50
2023-07-24T16:02:48.951Z,13.03
2023-07-24T16:05:38.750Z,12.40
2023-07-24T16:08:28.044Z,12.90
2023-07-24T16:11:17.434Z,12.77
2023-07-24T16:14:08.213Z,12.93
2023-07-24T16:16:57.556Z,11.50
2023-07-24T16:19:46.866Z,12.97
2023-07-24T16:22:36.589Z,12.80
2023-07-24T16:25:25.927Z,12.00
2023-07-24T16:28:15.292Z,12.70
2023-07-24T16:31:06.065Z,12.60
2023-07-24T16:33:55.512Z,11.70
2023-07-24T16:36:44.942Z,12.03
2023-07-24T16:39:34.955Z,12.63
2023-07-24T16:42:24.375Z,12.90
2023-07-24T16:45:29.270Z,13.37
2023-07-24T16:48:24.678Z,13.07
2023-07-24T16:51:14.125Z,13.03
2023-07-24T16:54:03.488Z,12.63
2023-07-24T16:56:52.939Z,12.70
2023-07-24T16:59:42.304Z,13.00
2023-07-24T17:02:32.757Z,12.77
2023-07-24T17:05:23.739Z,12.67
2023-07-24T17:08:13.431Z,13.47
2023-07-24T17:11:02.771Z,12.70
2023-07-24T17:13:52.136Z,12.47
2023-07-24T17:16:41.618Z,12.50
2023-07-24T17:19:30.979Z,12.70
2023-07-24T17:22:22.556Z,12.53
2023-07-24T17:25:11.943Z,12.50
2023-07-24T17:28:02.546Z,12.60
2023-07-24T17:30:52.806Z,11.87
2023-07-24T17:33:42.667Z,12.00
2023-07-24T17:36:32.127Z,12.40
2023-07-24T17:39:22.892Z,12.20
2023-07-24T17:42:12.238Z,12.00
2023-07-24T17:45:01.618Z,12.87
2023-07-24T17:47:51.026Z,12.57
2023-07-24T17:50:40.392Z,12.53
2023-07-24T17:53:29.772Z,12.57
2023-07-24T17:56:20.553Z,12.10
2023-07-24T17:59:09.987Z,12.33
2023-07-24T18:02:01.589Z,12.90
2023-07-24T18:04:51.051Z,12.73
2023-07-24T18:07:40.777Z,12.53
2023-07-24T18:10:30.116Z,12.87
2023-07-24T18:13:20.840Z,13.00
2023-07-24T18:16:10.662Z,12.60
2023-07-24T18:19:01.544Z,12.10
2023-07-24T18:21:51.176Z,12.40
2023-07-24T18:24:40.706Z,12.70
2023-07-24T18:27:30.248Z,12.20
2023-07-24T18:30:25.301Z,12.33
2023-07-24T18:33:14.719Z,12.37
2023-07-24T18:36:04.364Z,12.20
2023-07-24T18:38:53.659Z,12.10
2023-07-24T18:41:45.294Z,12.60
2023-07-24T18:44:38.217Z,11.83
2023-07-24T18:47:30.311Z,11.97
2023-07-24T18:50:19.964Z,11.73
2023-07-24T18:53:09.465Z,12.43
2023-07-24T18:55:59.977Z,12.93
2023-07-24T18:58:50.342Z,11.87
2023-07-24T19:01:39.770Z,11.93
2023-07-24T19:04:30.555Z,11.40
2023-07-24T19:07:21.267Z,10.57
2023-07-24T19:10:13.413Z,10.23
2023-07-24T19:13:03.041Z,9.60
2023-07-24T19:15:52.378Z,9.20
2023-07-24T19:18:42.046Z,9.30
2023-07-24T19:21:32.958Z,9.33
2023-07-24T19:24:22.506Z,9.43
2023-07-24T19:27:11.845Z,9.57
2023-07-24T19:30:03.832Z,9.20
2023-07-24T19:32:53.253Z,9.37
2023-07-24T19:35:43.287Z,9.10
2023-07-24T19:38:34.071Z,9.47
2023-07-24T19:41:23.999Z,9.30
2023-07-24T19:44:13.345Z,9.40
2023-07-24T19:47:02.729Z,9.27
2023-07-24T19:49:52.225Z,9.30
2023-07-24T19:52:42.399Z,9.50
2023-07-24T19:55:33.120Z,9.40
2023-07-24T19:58:33.149Z,9.40
2023-07-24T20:01:25.627Z,9.70
2023-07-24T20:04:15.029Z,9.83
2023-07-24T20:07:06.254Z,9.40
2023-07-24T20:09:55.971Z,9.60
2023-07-24T20:12:46.776Z,9.70
2023-07-24T20:15:36.566Z,9.10
2023-07-24T20:18:26.164Z,9.53
2023-07-24T20:21:15.497Z,9.20
2023-07-24T20:24:12.336Z,9.83
2023-07-24T20:27:01.676Z,9.53
2023-07-24T20:29:52.385Z,9.90
2023-07-24T20:32:41.809Z,9.57
2023-07-24T20:35:31.861Z,9.47
2023-07-24T20:38:26.042Z,9.73
2023-07-24T20:41:15.455Z,9.33
2023-07-24T20:44:06.433Z,9.70
2023-07-24T20:46:57.635Z,10.00
2023-07-24T20:49:46.941Z,9.20
2023-07-24T20:52:36.521Z,9.70
2023-07-24T20:55:26.005Z,9.67
2023-07-24T20:58:15.319Z,9.43
2023-07-24T21:01:04.815Z,9.60
2023-07-24T21:03:56.475Z,9.70
2023-07-24T21:06:45.986Z,9.90
2023-07-24T21:09:35.458Z,9.40
2023-07-24T21:12:25.001Z,10.00
2023-07-24T21:15:14.444Z,9.60
2023-07-24T21:18:03.812Z,9.47
2023-07-24T21:20:54.584Z,9.60
2023-07-24T21:23:43.910Z,9.30
2023-07-24T21:26:33.294Z,9.33
2023-07-24T21:29:22.655Z,9.87
2023-07-24T21:32:12.069Z,9.70
2023-07-24T21:35:01.474Z,9.33
2023-07-24T21:37:52.152Z,9.57
2023-07-24T21:40:41.554Z,9.63
2023-07-24T21:43:30.892Z,9.50
2023-07-24T21:46:20.267Z,9.17
2023-07-24T21:49:09.633Z,9.80
2023-07-24T21:51:58.959Z,9.20
2023-07-24T21:54:49.629Z,9.20
2023-07-24T21:57:38.973Z,9.57
2023-07-24T22:00:28.270Z,9.33
2023-07-24T22:03:18.146Z,9.50
2023-07-24T22:06:07.896Z,9.67
2023-07-24T22:08:57.416Z,9.40
2023-07-24T22:11:48.180Z,9.50
2023-07-24T22:14:37.579Z,9.83
2023-07-24T22:17:29.358Z,9.70
2023-07-24T22:20:30.859Z,9.30
2023-07-24T22:23:28.541Z,9.60
2023-07-24T22:26:17.878Z,9.40
2023-07-24T22:29:08.672Z,9.37
2023-07-24T22:31:58.021Z,9.47
2023-07-24T22:34:49.214Z,9.53
2023-07-24T22:37:38.610Z,9.70
2023-07-24T22:40:30.384Z,9.70
2023-07-24T22:43:19.709Z,9.33
2023-07-24T22:46:10.525Z,9.80
2023-07-24T22:48:59.911Z,9.40
2023-07-24T22:51:49.224Z,9.80
2023-07-24T22:54:38.533Z,9.30
2023-07-24T22:57:27.924Z,9.77
2023-07-24T23:00:17.627Z,9.30
2023-07-24T23:03:11.803Z,9.60
2023-07-24T23:06:01.240Z,15.07
2023-07-24T23:08:50.618Z,11.90
2023-07-24T23:11:39.951Z,11.03
2023-07-24T23:14:29.312Z,10.70
2023-07-24T23:17:18.603Z,10.10
2023-07-24T23:20:10.368Z,10.03
2023-07-24T23:23:00.192Z,10.00
2023-07-24T23:25:49.605Z,10.00
2023-07-24T23:28:38.914Z,9.73
2023-07-24T23:31:28.537Z,10.13
2023-07-24T23:34:18.086Z,10.00
2023-07-24T23:37:08.931Z,9.60
2023-07-24T23:39:58.196Z,9.90
2023-07-24T23:42:48.988Z,10.10
2023-07-24T23:45:38.280Z,9.70
2023-07-24T23:48:27.779Z,9.97
2023-07-24T23:51:19.770Z,9.90
2023-07-24T23:54:10.442Z,10.00
2023-07-24T23:56:59.791Z,10.50
2023-07-24T23:59:49.105Z,10.00
